sensor_id;sensor_type;location;lat;lon;timestamp;pressure;altitude;pressure_sealevel;temperature;humidity
15487;BME280;7845;53.698;10.078;2023-05-11T00:02:16;101125.13;;;19.08;100.00
15487;BME280;7845;53.698;10.078;2023-05-11T00:04:43;101130.41;;;19.08;100.00
15487;BME280;7845;53.698;10.078;2023-05-11T00:07:08;101130.34;;;19.10;100.00
15487;BME280;7845;53.698;10.078;2023-05-11T00:09:35;101129.56;;;19.06;100.00
15487;BME280;7845;53.698;10.078;2023-05-11T00:12:03;101130.28;;;19.11;100.00
15487;BME280;7845;53.698;10.078;2023-05-11T00:14:28;101133.78;;;19.12;100.00
15487;BME280;7845;53.698;10.078;2023-05-11T00:16:54;101130.97;;;19.16;100.00
15487;BME280;7845;53.698;10.078;2023-05-11T00:19:23;101119.50;;;18.93;100.00
15487;BME280;7845;53.698;10.078;2023-05-11T00:21:48;101131.50;;;19.26;100.00
15487;BME280;7845;53.698;10.078;2023-05-11T00:24:14;101133.81;;;19.35;100.00
15487;BME280;7845;53.698;10.078;2023-05-11T00:26:40;101137.50;;;19.29;100.00
15487;BME280;7845;53.698;10.078;2023-05-11T00:29:05;101135.44;;;19.39;100.00
15487;BME280;7845;53.698;10.078;2023-05-11T00:31:31;101135.16;;;19.47;100.00
15487;BME280;7845;53.698;10.078;2023-05-11T00:33:58;101134.09;;;19.51;100.00
15487;BME280;7845;53.698;10.078;2023-05-11T00:36:23;101135.72;;;19.55;100.00
15487;BME280;7845;53.698;10.078;2023-05-11T00:38:50;101140.38;;;19.48;100.00
15487;BME280;7845;53.698;10.078;2023-05-11T00:41:17;101131.28;;;19.32;100.00
15487;BME280;7845;53.698;10.078;2023-05-11T00:43:42;101138.91;;;19.16;100.00
15487;BME280;7845;53.698;10.078;2023-05-11T00:46:08;101137.94;;;18.96;100.00
15487;BME280;7845;53.698;10.078;2023-05-11T00:48:33;101138.38;;;19.07;100.00
15487;BME280;7845;53.698;10.078;2023-05-11T00:50:59;101135.53;;;18.88;100.00
15487;BME280;7845;53.698;10.078;2023-05-11T00:53:25;101136.63;;;18.83;100.00
15487;BME280;7845;53.698;10.078;2023-05-11T00:55:50;101139.44;;;18.78;100.00
15487;BME280;7845;53.698;10.078;2023-05-11T00:58:16;101125.44;;;18.99;100.00
15487;BME280;7845;53.698;10.078;2023-05-11T01:00:42;101129.16;;;18.94;100.00
15487;BME280;7845;53.698;10.078;2023-05-11T01:03:08;101131.91;;;18.91;100.00
15487;BME280;7845;53.698;10.078;2023-05-11T01:05:40;101135.13;;;18.51;100.00
15487;BME280;7845;53.698;10.078;2023-05-11T01:08:17;101144.19;;;18.16;100.00
15487;BME280;7845;53.698;10.078;2023-05-11T01:11:07;101137.94;;;18.45;100.00
15487;BME280;7845;53.698;10.078;2023-05-11T01:13:39;101141.88;;;18.59;100.00
15487;BME280;7845;53.698;10.078;2023-05-11T01:16:34;101133.50;;;18.71;100.00
15487;BME280;7845;53.698;10.078;2023-05-11T01:19:21;101140.44;;;18.75;100.00
15487;BME280;7845;53.698;10.078;2023-05-11T01:21:49;101136.81;;;18.78;100.00
15487;BME280;7845;53.698;10.078;2023-05-11T01:24:31;101140.22;;;18.82;100.00
15487;BME280;7845;53.698;10.078;2023-05-11T01:32:53;101140.84;;;18.88;100.00
15487;BME280;7845;53.698;10.078;2023-05-11T01:35:21;101147.75;;;18.67;100.00
15487;BME280;7845;53.698;10.078;2023-05-11T01:37:54;101155.31;;;18.25;100.00
15487;BME280;7845;53.698;10.078;2023-05-11T01:40:25;101150.06;;;18.52;100.00
15487;BME280;7845;53.698;10.078;2023-05-11T01:43:03;101149.16;;;18.25;100.00
15487;BME280;7845;53.698;10.078;2023-05-11T01:45:33;101151.78;;;18.27;100.00
15487;BME280;7845;53.698;10.078;2023-05-11T01:48:03;101149.75;;;18.35;100.00
15487;BME280;7845;53.698;10.078;2023-05-11T01:50:31;101155.66;;;18.43;100.00
15487;BME280;7845;53.698;10.078;2023-05-11T01:52:57;101154.59;;;18.47;100.00
15487;BME280;7845;53.698;10.078;2023-05-11T01:55:24;101156.00;;;18.32;100.00
15487;BME280;7845;53.698;10.078;2023-05-11T01:57:52;101151.41;;;18.37;100.00
15487;BME280;7845;53.698;10.078;2023-05-11T02:00:18;101164.41;;;18.43;100.00
15487;BME280;7845;53.698;10.078;2023-05-11T02:02:46;101164.38;;;18.45;100.00
15487;BME280;7845;53.698;10.078;2023-05-11T02:05:19;101166.34;;;18.66;100.00
15487;BME280;7845;53.698;10.078;2023-05-11T02:07:47;101169.63;;;18.72;100.00
15487;BME280;7845;53.698;10.078;2023-05-11T02:10:15;101164.59;;;18.65;100.00
15487;BME280;7845;53.698;10.078;2023-05-11T02:12:42;101167.22;;;18.65;100.00
15487;BME280;7845;53.698;10.078;2023-05-11T02:15:09;101160.69;;;18.50;100.00
15487;BME280;7845;53.698;10.078;2023-05-11T02:17:37;101163.28;;;18.52;100.00
15487;BME280;7845;53.698;10.078;2023-05-11T02:20:06;101166.34;;;18.66;100.00
15487;BME280;7845;53.698;10.078;2023-05-11T02:22:34;101169.41;;;18.54;100.00
15487;BME280;7845;53.698;10.078;2023-05-11T02:25:00;101169.81;;;18.14;100.00
15487;BME280;7845;53.698;10.078;2023-05-11T02:27:26;101178.88;;;18.07;100.00
15487;BME280;7845;53.698;10.078;2023-05-11T02:29:52;101181.84;;;17.96;100.00
15487;BME280;7845;53.698;10.078;2023-05-11T02:32:21;101183.31;;;18.05;100.00
15487;BME280;7845;53.698;10.078;2023-05-11T02:35:14;101186.13;;;18.27;100.00
15487;BME280;7845;53.698;10.078;2023-05-11T02:37:42;101184.09;;;18.35;100.00
15487;BME280;7845;53.698;10.078;2023-05-11T02:40:19;101182.59;;;18.28;100.00
15487;BME280;7845;53.698;10.078;2023-05-11T02:42:53;101183.28;;;18.33;100.00
15487;BME280;7845;53.698;10.078;2023-05-11T02:45:19;101183.28;;;18.33;100.00
15487;BME280;7845;53.698;10.078;2023-05-11T02:47:47;101177.81;;;18.39;100.00
15487;BME280;7845;53.698;10.078;2023-05-11T02:50:17;101181.22;;;18.42;100.00
15487;BME280;7845;53.698;10.078;2023-05-11T02:52:46;101183.78;;;18.44;100.00
15487;BME280;7845;53.698;10.078;2023-05-11T02:55:14;101183.63;;;18.50;100.00
15487;BME280;7845;53.698;10.078;2023-05-11T02:57:42;101184.75;;;18.41;100.00
15487;BME280;7845;53.698;10.078;2023-05-11T03:00:09;101191.63;;;18.47;100.00
15487;BME280;7845;53.698;10.078;2023-05-11T03:02:35;101189.03;;;18.45;100.00
15487;BME280;7845;53.698;10.078;2023-05-11T03:05:00;101190.84;;;18.43;100.00
15487;BME280;7845;53.698;10.078;2023-05-11T03:07:28;101190.75;;;18.46;100.00
15487;BME280;7845;53.698;10.078;2023-05-11T03:09:54;101191.41;;;18.27;100.00
15487;BME280;7845;53.698;10.078;2023-05-11T03:12:21;101184.25;;;18.30;100.00
15487;BME280;7845;53.698;10.078;2023-05-11T03:14:47;101183.41;;;18.02;100.00
15487;BME280;7845;53.698;10.078;2023-05-11T03:17:14;101187.59;;;18.09;100.00
15487;BME280;7845;53.698;10.078;2023-05-11T03:19:41;101190.06;;;18.13;100.00
15487;BME280;7845;53.698;10.078;2023-05-11T03:22:08;101182.06;;;18.16;100.00
15487;BME280;7845;53.698;10.078;2023-05-11T03:24:37;101193.59;;;18.14;100.00
15487;BME280;7845;53.698;10.078;2023-05-11T03:27:03;101182.41;;;18.06;100.00
15487;BME280;7845;53.698;10.078;2023-05-11T03:29:31;101183.69;;;18.20;100.00
15487;BME280;7845;53.698;10.078;2023-05-11T03:31:58;101183.50;;;18.27;100.00
15487;BME280;7845;53.698;10.078;2023-05-11T03:34:24;101183.81;;;18.16;100.00
15487;BME280;7845;53.698;10.078;2023-05-11T03:36:49;101183.72;;;18.19;100.00
15487;BME280;7845;53.698;10.078;2023-05-11T03:39:18;101180.19;;;18.20;100.00
15487;BME280;7845;53.698;10.078;2023-05-11T03:41:48;101188.97;;;18.20;100.00
15487;BME280;7845;53.698;10.078;2023-05-11T03:44:16;101180.75;;;18.30;100.00
15487;BME280;7845;53.698;10.078;2023-05-11T03:46:44;101187.34;;;18.16;100.00
15487;BME280;7845;53.698;10.078;2023-05-11T03:49:12;101181.84;;;18.22;100.00
15487;BME280;7845;53.698;10.078;2023-05-11T03:51:39;101183.00;;;18.15;100.00
15487;BME280;7845;53.698;10.078;2023-05-11T03:54:07;101188.22;;;18.17;100.00
15487;BME280;7845;53.698;10.078;2023-05-11T03:56:37;101179.22;;;18.22;100.00
15487;BME280;7845;53.698;10.078;2023-05-11T03:59:03;101184.28;;;18.02;100.00
15487;BME280;7845;53.698;10.078;2023-05-11T04:01:29;101178.50;;;18.17;100.00
15487;BME280;7845;53.698;10.078;2023-05-11T04:03:55;101187.53;;;18.10;100.00
15487;BME280;7845;53.698;10.078;2023-05-11T04:06:20;101189.44;;;18.07;100.00
15487;BME280;7845;53.698;10.078;2023-05-11T04:08:46;101183.78;;;18.17;100.00
15487;BME280;7845;53.698;10.078;2023-05-11T04:11:13;101184.56;;;18.21;100.00
15487;BME280;7845;53.698;10.078;2023-05-11T04:13:38;101181.16;;;18.17;100.00
15487;BME280;7845;53.698;10.078;2023-05-11T04:16:04;101188.28;;;18.15;100.00
15487;BME280;7845;53.698;10.078;2023-05-11T04:18:29;101186.66;;;18.10;100.00
15487;BME280;7845;53.698;10.078;2023-05-11T04:20:55;101178.72;;;18.10;100.00
15487;BME280;7845;53.698;10.078;2023-05-11T04:23:20;101192.59;;;18.18;100.00
15487;BME280;7845;53.698;10.078;2023-05-11T04:25:46;101195.03;;;17.96;100.00
15487;BME280;7845;53.698;10.078;2023-05-11T04:28:11;101191.25;;;18.05;100.00
15487;BME280;7845;53.698;10.078;2023-05-11T04:30:39;101195.75;;;18.01;100.00
15487;BME280;7845;53.698;10.078;2023-05-11T04:33:05;101190.19;;;18.10;100.00
15487;BME280;7845;53.698;10.078;2023-05-11T04:35:32;101190.66;;;17.95;100.00
15487;BME280;7845;53.698;10.078;2023-05-11T04:37:57;101195.00;;;17.98;100.00
15487;BME280;7845;53.698;10.078;2023-05-11T04:40:23;101201.78;;;18.06;100.00
15487;BME280;7845;53.698;10.078;2023-05-11T04:42:50;101207.88;;;18.08;100.00
15487;BME280;7845;53.698;10.078;2023-05-11T04:45:18;101204.72;;;18.23;100.00
15487;BME280;7845;53.698;10.078;2023-05-11T04:47:43;101206.56;;;18.21;100.00
15487;BME280;7845;53.698;10.078;2023-05-11T04:50:09;101207.09;;;18.05;100.00
15487;BME280;7845;53.698;10.078;2023-05-11T04:52:35;101196.91;;;18.20;100.00
15487;BME280;7845;53.698;10.078;2023-05-11T04:55:00;101200.06;;;18.32;100.00
15487;BME280;7845;53.698;10.078;2023-05-11T04:57:27;101204.22;;;17.55;100.00
15487;BME280;7845;53.698;10.078;2023-05-11T04:59:52;101215.47;;;17.62;100.00
15487;BME280;7845;53.698;10.078;2023-05-11T05:02:19;101218.38;;;17.82;100.00
15487;BME280;7845;53.698;10.078;2023-05-11T05:04:44;101209.16;;;17.67;100.00
15487;BME280;7845;53.698;10.078;2023-05-11T05:07:11;101220.94;;;17.85;100.00
15487;BME280;7845;53.698;10.078;2023-05-11T05:09:36;101213.59;;;17.65;100.00
15487;BME280;7845;53.698;10.078;2023-05-11T05:12:03;101219.25;;;17.83;100.00
15487;BME280;7845;53.698;10.078;2023-05-11T05:14:28;101222.47;;;18.20;100.00
15487;BME280;7845;53.698;10.078;2023-05-11T05:16:53;101215.63;;;18.41;100.00
15487;BME280;7845;53.698;10.078;2023-05-11T05:19:20;101218.50;;;18.61;100.00
15487;BME280;7845;53.698;10.078;2023-05-11T05:21:45;101217.28;;;18.43;100.00
15487;BME280;7845;53.698;10.078;2023-05-11T05:24:12;101218.59;;;18.58;100.00
15487;BME280;7845;53.698;10.078;2023-05-11T05:26:37;101214.25;;;18.57;100.00
15487;BME280;7845;53.698;10.078;2023-05-11T05:29:04;101211.31;;;18.64;100.00
15487;BME280;7845;53.698;10.078;2023-05-11T05:31:30;101210.28;;;18.42;100.00
15487;BME280;7845;53.698;10.078;2023-05-11T05:33:55;101217.63;;;17.77;100.00
15487;BME280;7845;53.698;10.078;2023-05-11T05:36:20;101229.72;;;18.13;100.00
15487;BME280;7845;53.698;10.078;2023-05-11T05:38:45;101225.81;;;18.53;100.00
15487;BME280;7845;53.698;10.078;2023-05-11T05:41:11;101218.94;;;18.73;100.00
15487;BME280;7845;53.698;10.078;2023-05-11T05:43:36;101228.91;;;17.53;100.00
15487;BME280;7845;53.698;10.078;2023-05-11T05:46:01;101236.25;;;18.02;100.00
15487;BME280;7845;53.698;10.078;2023-05-11T05:48:28;101234.03;;;18.44;100.00
15487;BME280;7845;53.698;10.078;2023-05-11T05:50:53;101234.72;;;18.50;100.00
15487;BME280;7845;53.698;10.078;2023-05-11T05:53:19;101233.84;;;18.50;100.00
15487;BME280;7845;53.698;10.078;2023-05-11T05:55:45;101237.63;;;18.13;100.00
15487;BME280;7845;53.698;10.078;2023-05-11T05:58:10;101234.63;;;18.25;100.00
15487;BME280;7845;53.698;10.078;2023-05-11T06:00:36;101241.88;;;18.73;100.00
15487;BME280;7845;53.698;10.078;2023-05-11T06:03:02;101236.53;;;18.48;100.00
15487;BME280;7845;53.698;10.078;2023-05-11T06:05:27;101239.59;;;18.35;100.00
15487;BME280;7845;53.698;10.078;2023-05-11T06:07:53;101245.75;;;18.63;100.00
15487;BME280;7845;53.698;10.078;2023-05-11T06:10:18;101239.84;;;18.55;100.00
15487;BME280;7845;53.698;10.078;2023-05-11T06:12:43;101240.84;;;18.78;100.00
15487;BME280;7845;53.698;10.078;2023-05-11T06:15:09;101241.88;;;18.73;100.00
15487;BME280;7845;53.698;10.078;2023-05-11T06:17:35;101244.69;;;18.41;100.00
15487;BME280;7845;53.698;10.078;2023-05-11T06:20:00;101251.78;;;17.83;100.00
15487;BME280;7845;53.698;10.078;2023-05-11T06:22:26;101257.25;;;17.77;100.00
15487;BME280;7845;53.698;10.078;2023-05-11T06:24:51;101256.75;;;18.51;100.00
15487;BME280;7845;53.698;10.078;2023-05-11T06:27:17;101254.59;;;18.62;100.00
15487;BME280;7845;53.698;10.078;2023-05-11T06:29:42;101249.47;;;18.84;100.00
15487;BME280;7845;53.698;10.078;2023-05-11T06:32:07;101249.28;;;18.88;100.00
15487;BME280;7845;53.698;10.078;2023-05-11T06:34:33;101251.53;;;18.48;100.00
15487;BME280;7845;53.698;10.078;2023-05-11T06:36:58;101253.50;;;18.41;100.00
15487;BME280;7845;53.698;10.078;2023-05-11T06:39:24;101248.91;;;18.74;100.00
15487;BME280;7845;53.698;10.078;2023-05-11T06:41:53;101248.31;;;18.38;100.00
15487;BME280;7845;53.698;10.078;2023-05-11T06:44:18;101255.84;;;18.78;100.00
15487;BME280;7845;53.698;10.078;2023-05-11T06:46:43;101260.00;;;18.59;100.00
15487;BME280;7845;53.698;10.078;2023-05-11T06:49:09;101251.63;;;18.97;100.00
15487;BME280;7845;53.698;10.078;2023-05-11T06:51:34;101256.81;;;19.00;100.00
15487;BME280;7845;53.698;10.078;2023-05-11T06:53:59;101253.09;;;19.06;100.00
15487;BME280;7845;53.698;10.078;2023-05-11T06:56:25;101250.41;;;19.07;100.00
15487;BME280;7845;53.698;10.078;2023-05-11T06:58:52;101248.94;;;18.99;100.00
15487;BME280;7845;53.698;10.078;2023-05-11T07:01:17;101259.34;;;18.78;100.00
15487;BME280;7845;53.698;10.078;2023-05-11T07:03:42;101258.34;;;19.07;100.00
15487;BME280;7845;53.698;10.078;2023-05-11T07:06:08;101254.81;;;18.56;100.00
15487;BME280;7845;53.698;10.078;2023-05-11T07:08:33;101258.88;;;18.92;100.00
15487;BME280;7845;53.698;10.078;2023-05-11T07:10:59;101261.00;;;19.32;100.00
15487;BME280;7845;53.698;10.078;2023-05-11T07:13:26;101273.50;;;18.76;100.00
15487;BME280;7845;53.698;10.078;2023-05-11T07:15:52;101266.81;;;18.66;100.00
15487;BME280;7845;53.698;10.078;2023-05-11T07:18:17;101263.19;;;19.19;100.00
15487;BME280;7845;53.698;10.078;2023-05-11T07:20:43;101262.91;;;18.77;100.00
15487;BME280;7845;53.698;10.078;2023-05-11T07:23:11;101259.25;;;19.31;100.00
15487;BME280;7845;53.698;10.078;2023-05-11T07:25:36;101265.38;;;19.08;100.00
15487;BME280;7845;53.698;10.078;2023-05-11T07:28:03;101267.53;;;19.47;100.00
15487;BME280;7845;53.698;10.078;2023-05-11T07:30:29;101255.56;;;19.60;100.00
15487;BME280;7845;53.698;10.078;2023-05-11T07:32:54;101262.38;;;19.67;100.00
15487;BME280;7845;53.698;10.078;2023-05-11T07:35:20;101268.88;;;19.33;100.00
15487;BME280;7845;53.698;10.078;2023-05-11T07:37:48;101267.31;;;19.53;100.00
15487;BME280;7845;53.698;10.078;2023-05-11T07:40:14;101274.44;;;19.01;100.00
15487;BME280;7845;53.698;10.078;2023-05-11T07:42:40;101269.66;;;19.35;100.00
15487;BME280;7845;53.698;10.078;2023-05-11T07:45:05;101268.31;;;19.50;100.00
15487;BME280;7845;53.698;10.078;2023-05-11T07:47:31;101271.38;;;19.38;100.00
15487;BME280;7845;53.698;10.078;2023-05-11T07:49:56;101266.81;;;19.42;100.00
15487;BME280;7845;53.698;10.078;2023-05-11T07:52:21;101274.84;;;19.63;100.00
15487;BME280;7845;53.698;10.078;2023-05-11T07:54:48;101278.50;;;19.61;100.00
15487;BME280;7845;53.698;10.078;2023-05-11T07:57:13;101277.91;;;19.53;100.00
15487;BME280;7845;53.698;10.078;2023-05-11T07:59:39;101282.69;;;19.43;100.00
15487;BME280;7845;53.698;10.078;2023-05-11T08:02:06;101284.16;;;19.25;100.00
15487;BME280;7845;53.698;10.078;2023-05-11T08:04:32;101286.47;;;19.59;100.00
15487;BME280;7845;53.698;10.078;2023-05-11T08:06:57;101284.34;;;19.46;100.00
15487;BME280;7845;53.698;10.078;2023-05-11T08:09:25;101285.63;;;19.34;100.00
15487;BME280;7845;53.698;10.078;2023-05-11T08:11:50;101280.50;;;19.54;100.00
15487;BME280;7845;53.698;10.078;2023-05-11T08:14:17;101288.72;;;19.20;100.00
15487;BME280;7845;53.698;10.078;2023-05-11T08:16:42;101284.13;;;19.75;100.00
15487;BME280;7845;53.698;10.078;2023-05-11T08:19:09;101288.22;;;19.60;100.00
15487;BME280;7845;53.698;10.078;2023-05-11T08:21:35;101289.19;;;19.58;100.00
15487;BME280;7845;53.698;10.078;2023-05-11T08:24:04;101291.63;;;19.39;100.00
15487;BME280;7845;53.698;10.078;2023-05-11T08:26:30;101288.38;;;19.31;100.00
15487;BME280;7845;53.698;10.078;2023-05-11T08:28:57;101301.44;;;18.85;100.00
15487;BME280;7845;53.698;10.078;2023-05-11T08:31:22;101299.38;;;19.45;100.00
15487;BME280;7845;53.698;10.078;2023-05-11T08:33:48;101301.97;;;19.20;100.00
15487;BME280;7845;53.698;10.078;2023-05-11T08:36:13;101300.06;;;18.73;100.00
15487;BME280;7845;53.698;10.078;2023-05-11T08:38:39;101304.97;;;19.11;100.00
15487;BME280;7845;53.698;10.078;2023-05-11T08:41:05;101303.63;;;19.49;100.00
15487;BME280;7845;53.698;10.078;2023-05-11T08:43:34;101303.47;;;19.54;100.00
15487;BME280;7845;53.698;10.078;2023-05-11T08:46:04;101297.38;;;19.75;100.00
15487;BME280;7845;53.698;10.078;2023-05-11T08:48:33;101308.25;;;19.44;100.00
15487;BME280;7845;53.698;10.078;2023-05-11T08:51:00;101304.13;;;19.83;100.00
15487;BME280;7845;53.698;10.078;2023-05-11T08:53:27;101305.44;;;19.72;100.00
15487;BME280;7845;53.698;10.078;2023-05-11T08:55:54;101298.56;;;19.43;100.00
15487;BME280;7845;53.698;10.078;2023-05-11T08:58:22;101307.78;;;19.56;100.00
15487;BME280;7845;53.698;10.078;2023-05-11T09:00:48;101300.69;;;19.57;100.00
15487;BME280;7845;53.698;10.078;2023-05-11T09:03:15;101307.91;;;19.02;100.00
15487;BME280;7845;53.698;10.078;2023-05-11T09:05:44;101311.97;;;18.60;100.00
15487;BME280;7845;53.698;10.078;2023-05-11T09:08:11;101315.66;;;19.08;100.00
15487;BME280;7845;53.698;10.078;2023-05-11T09:10:41;101310.16;;;19.64;100.00
15487;BME280;7845;53.698;10.078;2023-05-11T09:13:07;101307.59;;;18.59;100.00
15487;BME280;7845;53.698;10.078;2023-05-11T09:15:34;101314.66;;;18.58;100.00
15487;BME280;7845;53.698;10.078;2023-05-11T09:17:59;101317.31;;;18.85;100.00
15487;BME280;7845;53.698;10.078;2023-05-11T09:20:30;101309.44;;;18.28;100.00
15487;BME280;7845;53.698;10.078;2023-05-11T09:22:58;101315.03;;;18.74;100.00
15487;BME280;7845;53.698;10.078;2023-05-11T09:25:24;101308.75;;;19.03;100.00
15487;BME280;7845;53.698;10.078;2023-05-11T09:27:51;101296.34;;;19.29;100.00
15487;BME280;7845;53.698;10.078;2023-05-11T09:30:18;101298.38;;;19.48;100.00
15487;BME280;7845;53.698;10.078;2023-05-11T09:32:58;101290.91;;;19.34;100.00
15487;BME280;7845;53.698;10.078;2023-05-11T09:35:31;101289.84;;;19.87;100.00
15487;BME280;7845;53.698;10.078;2023-05-11T09:38:09;101289.34;;;20.23;100.00
15487;BME280;7845;53.698;10.078;2023-05-11T09:40:36;101280.59;;;20.21;100.00
15487;BME280;7845;53.698;10.078;2023-05-11T09:43:23;101280.56;;;20.66;100.00
15487;BME280;7845;53.698;10.078;2023-05-11T09:45:56;101282.06;;;20.93;100.00
15487;BME280;7845;53.698;10.078;2023-05-11T09:48:29;101276.56;;;20.56;100.00
15487;BME280;7845;53.698;10.078;2023-05-11T09:51:01;101292.41;;;20.35;100.00
15487;BME280;7845;53.698;10.078;2023-05-11T09:53:42;101292.97;;;20.20;100.00
15487;BME280;7845;53.698;10.078;2023-05-11T09:56:10;101296.94;;;20.33;100.00
15487;BME280;7845;53.698;10.078;2023-05-11T09:58:53;101297.09;;;20.51;100.00
15487;BME280;7845;53.698;10.078;2023-05-11T10:01:32;101295.19;;;20.32;100.00
15487;BME280;7845;53.698;10.078;2023-05-11T10:04:01;101299.50;;;20.35;100.00
15487;BME280;7845;53.698;10.078;2023-05-11T10:06:42;101299.00;;;20.02;100.00
15487;BME280;7845;53.698;10.078;2023-05-11T10:09:08;101300.97;;;19.97;100.00
15487;BME280;7845;53.698;10.078;2023-05-11T10:11:35;101294.59;;;20.01;100.00
15487;BME280;7845;53.698;10.078;2023-05-11T10:14:03;101295.44;;;20.03;100.00
15487;BME280;7845;53.698;10.078;2023-05-11T10:16:29;101293.34;;;20.56;100.00
15487;BME280;7845;53.698;10.078;2023-05-11T10:18:55;101286.25;;;20.98;100.00
15487;BME280;7845;53.698;10.078;2023-05-11T10:21:21;101284.91;;;21.10;100.00
15487;BME280;7845;53.698;10.078;2023-05-11T10:23:46;101282.78;;;21.38;100.00
15487;BME280;7845;53.698;10.078;2023-05-11T10:26:13;101280.81;;;21.23;100.00
15487;BME280;7845;53.698;10.078;2023-05-11T10:28:39;101278.47;;;21.16;100.00
15487;BME280;7845;53.698;10.078;2023-05-11T10:31:08;101281.59;;;20.83;100.00
15487;BME280;7845;53.698;10.078;2023-05-11T10:33:33;101285.22;;;21.03;100.00
15487;BME280;7845;53.698;10.078;2023-05-11T10:35:59;101276.66;;;21.16;100.00
15487;BME280;7845;53.698;10.078;2023-05-11T10:38:25;101285.50;;;21.37;100.00
15487;BME280;7845;53.698;10.078;2023-05-11T10:40:53;101280.66;;;21.46;100.00
15487;BME280;7845;53.698;10.078;2023-05-11T10:49:09;101287.03;;;21.01;100.00
15487;BME280;7845;53.698;10.078;2023-05-11T10:51:54;101285.25;;;20.59;100.00
15487;BME280;7845;53.698;10.078;2023-05-11T10:55:01;101283.00;;;20.92;100.00
15487;BME280;7845;53.698;10.078;2023-05-11T10:57:36;101286.81;;;20.20;100.00
15487;BME280;7845;53.698;10.078;2023-05-11T11:00:31;101280.69;;;20.84;100.00
15487;BME280;7845;53.698;10.078;2023-05-11T11:03:11;101283.47;;;20.81;100.00
15487;BME280;7845;53.698;10.078;2023-05-11T11:05:39;101281.47;;;21.08;100.00
15487;BME280;7845;53.698;10.078;2023-05-11T11:08:06;101284.28;;;20.82;100.00
15487;BME280;7845;53.698;10.078;2023-05-11T11:10:36;101280.50;;;21.09;100.00
15487;BME280;7845;53.698;10.078;2023-05-11T11:13:07;101280.72;;;21.25;100.00
15487;BME280;7845;53.698;10.078;2023-05-11T11:18:27;101283.88;;;20.71;100.00
15487;BME280;7845;53.698;10.078;2023-05-11T11:20:55;101280.00;;;20.79;100.00
15487;BME280;7845;53.698;10.078;2023-05-11T11:23:45;101284.38;;;21.22;100.00
15487;BME280;7845;53.698;10.078;2023-05-11T11:26:15;101285.66;;;20.92;100.00
15487;BME280;7845;53.698;10.078;2023-05-11T11:31:28;101286.31;;;20.33;100.00
15487;BME280;7845;53.698;10.078;2023-05-11T11:34:35;101276.75;;;21.35;100.00
15487;BME280;7845;53.698;10.078;2023-05-11T11:37:01;101274.34;;;21.88;100.00
15487;BME280;7845;53.698;10.078;2023-05-11T11:39:32;101276.09;;;22.43;100.00
15487;BME280;7845;53.698;10.078;2023-05-11T11:42:18;101280.34;;;22.66;100.00
15487;BME280;7845;53.698;10.078;2023-05-11T11:45:25;101282.66;;;22.36;100.00
15487;BME280;7845;53.698;10.078;2023-05-11T11:48:11;101283.03;;;23.18;100.00
15487;BME280;7845;53.698;10.078;2023-05-11T11:50:42;101283.53;;;23.24;100.00
15487;BME280;7845;53.698;10.078;2023-05-11T12:01:11;101283.81;;;23.02;100.00
15487;BME280;7845;53.698;10.078;2023-05-11T12:03:38;101282.31;;;23.14;100.00
15487;BME280;7845;53.698;10.078;2023-05-11T12:06:07;101285.09;;;22.41;100.00
15487;BME280;7845;53.698;10.078;2023-05-11T12:08:33;101290.66;;;23.58;100.00
15487;BME280;7845;53.698;10.078;2023-05-11T12:11:00;101289.03;;;23.55;100.00
15487;BME280;7845;53.698;10.078;2023-05-11T12:13:27;101288.88;;;22.73;100.00
15487;BME280;7845;53.698;10.078;2023-05-11T12:16:15;101293.97;;;23.46;100.00
15487;BME280;7845;53.698;10.078;2023-05-11T12:18:53;101284.25;;;23.28;100.00
15487;BME280;7845;53.698;10.078;2023-05-11T12:21:20;101285.59;;;23.53;100.00
15487;BME280;7845;53.698;10.078;2023-05-11T12:23:52;101277.38;;;23.24;100.00
15487;BME280;7845;53.698;10.078;2023-05-11T12:26:20;101286.06;;;22.93;100.00
15487;BME280;7845;53.698;10.078;2023-05-11T12:28:49;101289.75;;;22.90;100.00
15487;BME280;7845;53.698;10.078;2023-05-11T12:31:15;101287.88;;;22.92;100.00
15487;BME280;7845;53.698;10.078;2023-05-11T12:33:49;101292.03;;;23.32;100.00
15487;BME280;7845;53.698;10.078;2023-05-11T12:36:17;101301.81;;;22.61;100.00
15487;BME280;7845;53.698;10.078;2023-05-11T12:38:47;101301.31;;;22.72;100.00
15487;BME280;7845;53.698;10.078;2023-05-11T12:41:21;101294.06;;;23.10;100.00
15487;BME280;7845;53.698;10.078;2023-05-11T12:43:51;101292.50;;;23.23;100.00
15487;BME280;7845;53.698;10.078;2023-05-11T12:46:18;101286.91;;;23.78;100.00
15487;BME280;7845;53.698;10.078;2023-05-11T12:48:45;101284.06;;;24.45;100.00
15487;BME280;7845;53.698;10.078;2023-05-11T12:51:11;101272.09;;;24.97;100.00
15487;BME280;7845;53.698;10.078;2023-05-11T12:53:38;101267.75;;;25.54;100.00
15487;BME280;7845;53.698;10.078;2023-05-11T12:56:04;101280.13;;;24.36;100.00
15487;BME280;7845;53.698;10.078;2023-05-11T12:58:36;101280.47;;;24.14;100.00
15487;BME280;7845;53.698;10.078;2023-05-11T13:01:03;101289.41;;;23.65;100.00
15487;BME280;7845;53.698;10.078;2023-05-11T13:03:32;101282.78;;;23.56;100.00
15487;BME280;7845;53.698;10.078;2023-05-11T13:06:05;101289.56;;;22.76;100.00
15487;BME280;7845;53.698;10.078;2023-05-11T13:08:32;101281.41;;;23.65;100.00
15487;BME280;7845;53.698;10.078;2023-05-11T13:11:23;101285.66;;;22.47;100.00
15487;BME280;7845;53.698;10.078;2023-05-11T13:13:54;101266.63;;;23.59;100.00